createdAt,value
2023-03-18T00:00:25.531Z,6.22
2023-03-18T00:02:54.942Z,6.30
2023-03-18T00:05:22.637Z,6.68
2023-03-18T00:07:50.339Z,5.70
2023-03-18T00:10:18.760Z,6.05
2023-03-18T00:12:46.336Z,5.72
2023-03-18T00:15:17.981Z,5.78
2023-03-18T00:17:45.605Z,5.68
2023-03-18T00:20:18.157Z,5.47
2023-03-18T00:22:46.752Z,5.20
2023-03-18T00:25:16.293Z,5.45
2023-03-18T00:27:43.859Z,5.68
2023-03-18T00:30:13.302Z,5.90
2023-03-18T00:32:42.127Z,5.32
2023-03-18T00:35:10.856Z,5.70
2023-03-18T00:37:39.855Z,5.85
2023-03-18T00:40:10.555Z,4.78
2023-03-18T00:42:47.204Z,4.90
2023-03-18T00:45:17.004Z,4.60
2023-03-18T00:47:45.398Z,4.97
2023-03-18T00:50:13.627Z,4.90
2023-03-18T00:52:42.652Z,5.20
2023-03-18T00:55:11.572Z,4.85
2023-03-18T00:57:39.231Z,5.22
2023-03-18T01:00:08.036Z,5.13
2023-03-18T01:02:35.827Z,4.68
2023-03-18T01:05:04.072Z,5.10
2023-03-18T01:07:31.862Z,5.45
2023-03-18T01:10:01.136Z,5.70
2023-03-18T01:12:28.713Z,8.45
2023-03-18T01:14:56.367Z,6.53
2023-03-18T01:17:23.979Z,5.20
2023-03-18T01:19:51.513Z,5.90
2023-03-18T01:22:19.554Z,4.75
2023-03-18T01:24:50.537Z,5.15
2023-03-18T01:27:22.344Z,4.65
2023-03-18T01:29:50.081Z,5.40
2023-03-18T01:32:24.035Z,5.60
2023-03-18T01:34:51.901Z,5.35
2023-03-18T01:39:55.322Z,5.10
2023-03-18T01:42:25.817Z,4.90
2023-03-18T01:45:19.896Z,4.38
2023-03-18T01:47:49.930Z,4.43
2023-03-18T01:50:22.995Z,4.85
2023-03-18T01:52:56.225Z,4.72
2023-03-18T01:55:27.359Z,4.65
2023-03-18T01:57:57.109Z,4.90
2023-03-18T02:00:25.298Z,4.40
2023-03-18T02:02:54.896Z,3.97
2023-03-18T02:07:52.663Z,4.28
2023-03-18T02:10:23.881Z,4.28
2023-03-18T02:12:54.256Z,4.45
2023-03-18T02:15:33.006Z,4.10
2023-03-18T02:18:05.765Z,3.13
2023-03-18T02:20:42.122Z,3.73
2023-03-18T02:23:25.750Z,4.85
2023-03-18T02:26:00.275Z,4.43
2023-03-18T02:28:31.754Z,4.88
2023-03-18T02:31:04.989Z,4.95
2023-03-18T02:33:36.335Z,4.00
2023-03-18T02:36:07.508Z,4.13
2023-03-18T02:38:42.755Z,4.13
2023-03-18T02:41:19.900Z,4.30
2023-03-18T02:43:51.544Z,4.50
2023-03-18T02:46:42.418Z,4.53
2023-03-18T02:49:11.098Z,3.70
2023-03-18T02:51:39.494Z,3.80
2023-03-18T02:54:10.124Z,3.60
2023-03-18T02:56:38.113Z,4.10
2023-03-18T02:59:07.314Z,4.05
2023-03-18T03:01:36.466Z,4.38
2023-03-18T03:04:06.772Z,4.57
2023-03-18T03:06:35.969Z,3.75
2023-03-18T03:09:04.416Z,3.35
2023-03-18T03:11:32.072Z,3.90
2023-03-18T03:14:09.341Z,3.63
2023-03-18T03:16:37.691Z,3.88
2023-03-18T03:19:06.670Z,3.47
2023-03-18T03:21:35.865Z,3.00
2023-03-18T03:24:04.102Z,3.70
2023-03-18T03:26:32.255Z,3.13
2023-03-18T03:29:00.487Z,3.30
2023-03-18T03:31:29.417Z,2.97
2023-03-18T03:33:58.499Z,3.75
2023-03-18T03:36:26.147Z,3.30
2023-03-18T03:38:53.922Z,3.28
2023-03-18T03:41:22.115Z,3.90
2023-03-18T03:43:50.560Z,4.20
2023-03-18T03:46:18.104Z,3.35
2023-03-18T03:48:48.371Z,3.22
2023-03-18T03:51:17.272Z,3.30
2023-03-18T03:53:46.142Z,2.72
2023-03-18T03:56:15.498Z,2.58
2023-03-18T03:58:43.191Z,3.15
2023-03-18T04:01:10.909Z,3.72
2023-03-18T04:03:38.979Z,2.95
2023-03-18T04:06:10.748Z,2.92
2023-03-18T04:08:44.802Z,2.70
2023-03-18T04:11:12.498Z,3.42
2023-03-18T04:13:42.653Z,3.75
2023-03-18T04:16:10.542Z,2.88
2023-03-18T04:18:38.214Z,3.28
2023-03-18T04:21:08.035Z,2.83
2023-03-18T04:23:57.434Z,2.45
2023-03-18T04:26:25.234Z,3.17
2023-03-18T04:28:54.343Z,2.65
2023-03-18T04:31:23.164Z,2.80
2023-03-18T04:33:50.897Z,3.20
2023-03-18T04:36:18.564Z,4.47
2023-03-18T04:38:46.336Z,2.72
2023-03-18T04:41:15.333Z,3.05
2023-03-18T04:43:43.313Z,2.90
2023-03-18T04:46:11.934Z,2.72
2023-03-18T04:48:40.613Z,2.78
2023-03-18T04:51:10.171Z,2.80
2023-03-18T04:53:40.174Z,2.30
2023-03-18T04:56:10.292Z,2.60
2023-03-18T04:58:46.464Z,2.83
2023-03-18T05:01:19.253Z,2.40
2023-03-18T05:03:47.343Z,2.88
2023-03-18T05:06:22.882Z,3.63
2023-03-18T05:09:00.150Z,3.20
2023-03-18T05:11:33.025Z,5.05
2023-03-18T05:14:08.609Z,4.13
2023-03-18T05:16:43.211Z,2.53
2023-03-18T05:19:11.068Z,2.53
2023-03-18T05:21:45.615Z,2.55
2023-03-18T05:24:13.240Z,2.60
2023-03-18T05:26:42.611Z,2.58
2023-03-18T05:29:12.652Z,2.33
2023-03-18T05:31:52.029Z,2.72
2023-03-18T05:34:19.816Z,2.10
2023-03-18T05:36:48.105Z,2.20
2023-03-18T05:39:16.309Z,2.10
2023-03-18T05:41:44.801Z,2.30
2023-03-18T05:44:17.224Z,2.15
2023-03-18T05:46:44.929Z,2.50
2023-03-18T05:49:18.109Z,2.45
2023-03-18T05:52:05.906Z,2.38
2023-03-18T05:54:39.565Z,2.50
2023-03-18T05:57:07.347Z,2.20
2023-03-18T05:59:36.638Z,2.45
2023-03-18T06:02:04.405Z,2.45
2023-03-18T06:04:32.623Z,2.08
2023-03-18T06:07:01.131Z,2.20
2023-03-18T06:09:28.717Z,2.00
2023-03-18T06:11:57.137Z,2.17
2023-03-18T06:14:29.173Z,2.10
2023-03-18T06:17:01.403Z,1.98
2023-03-18T06:19:30.681Z,2.10
2023-03-18T06:21:58.722Z,2.20
2023-03-18T06:24:26.304Z,2.38
2023-03-18T06:26:55.612Z,2.10
2023-03-18T06:29:23.750Z,2.50
2023-03-18T06:31:53.156Z,2.20
2023-03-18T06:34:26.656Z,2.95
2023-03-18T06:36:56.472Z,2.30
2023-03-18T06:39:24.705Z,2.47
2023-03-18T06:41:53.044Z,3.35
2023-03-18T06:44:29.910Z,3.35
2023-03-18T06:47:02.676Z,3.88
2023-03-18T06:49:35.961Z,4.65
2023-03-18T06:52:13.434Z,4.72
2023-03-18T06:54:44.518Z,2.55
2023-03-18T06:57:12.313Z,2.40
2023-03-18T06:59:40.628Z,2.55
2023-03-18T07:02:10.974Z,2.03
2023-03-18T07:04:40.077Z,2.00
2023-03-18T07:07:08.332Z,2.50
2023-03-18T07:09:37.551Z,2.25
2023-03-18T07:12:06.322Z,2.25
2023-03-18T07:14:33.988Z,1.85
2023-03-18T07:17:02.110Z,2.20
2023-03-18T07:19:29.875Z,2.53
2023-03-18T07:21:58.911Z,1.90
2023-03-18T07:24:26.843Z,2.08
2023-03-18T07:26:54.550Z,2.00
2023-03-18T07:29:22.159Z,2.45
2023-03-18T07:31:50.152Z,1.92
2023-03-18T07:34:18.727Z,2.15
2023-03-18T07:36:46.847Z,2.00
2023-03-18T07:39:15.841Z,1.85
2023-03-18T07:41:43.771Z,4.88
2023-03-18T07:52:29.353Z,2.03
2023-03-18T07:54:58.213Z,2.10
2023-03-18T07:57:25.959Z,1.98
2023-03-18T07:59:53.516Z,2.00
2023-03-18T08:02:21.632Z,1.77
2023-03-18T08:04:49.299Z,2.03
2023-03-18T08:07:17.159Z,2.30
2023-03-18T08:09:44.862Z,1.95
2023-03-18T08:12:13.986Z,1.90
2023-03-18T08:14:41.560Z,2.05
2023-03-18T08:17:09.582Z,2.03
2023-03-18T08:19:37.498Z,2.35
2023-03-18T08:22:05.103Z,1.83
2023-03-18T08:24:32.706Z,2.05
2023-03-18T08:27:00.230Z,2.95
2023-03-18T08:29:29.181Z,2.85
2023-03-18T08:31:57.084Z,2.20
2023-03-18T08:34:24.619Z,1.80
2023-03-18T08:36:52.558Z,2.38
2023-03-18T08:39:20.226Z,1.98
2023-03-18T08:41:48.637Z,1.58
2023-03-18T08:44:16.360Z,1.63
2023-03-18T08:46:45.315Z,1.38
2023-03-18T08:49:13.927Z,1.35
2023-03-18T08:51:41.940Z,0.90
2023-03-18T08:54:09.559Z,1.20
2023-03-18T08:56:38.104Z,0.98
2023-03-18T08:59:05.643Z,1.10
2023-03-18T09:01:33.259Z,1.10
2023-03-18T09:04:02.176Z,1.20
2023-03-18T09:06:30.305Z,1.20
2023-03-18T09:08:58.092Z,1.25
2023-03-18T09:11:26.266Z,1.27
2023-03-18T09:13:54.476Z,1.58
2023-03-18T09:16:22.807Z,1.40
2023-03-18T09:18:50.434Z,1.38
2023-03-18T09:21:19.416Z,1.30
2023-03-18T09:23:46.963Z,1.27
2023-03-18T09:26:14.748Z,1.15
2023-03-18T09:28:42.336Z,1.27
2023-03-18T09:31:09.910Z,1.45
2023-03-18T09:33:37.699Z,1.08
2023-03-18T09:36:05.967Z,1.00
2023-03-18T09:38:35.182Z,1.30
2023-03-18T09:41:17.402Z,1.10
2023-03-18T09:43:57.218Z,1.25
2023-03-18T09:46:33.812Z,0.90
2023-03-18T09:49:36.871Z,0.90
2023-03-18T09:52:14.808Z,0.93
2023-03-18T09:54:50.010Z,0.75
2023-03-18T09:57:23.812Z,1.00
2023-03-18T09:59:55.673Z,0.95
2023-03-18T10:02:28.314Z,0.70
2023-03-18T10:04:59.502Z,0.80
2023-03-18T10:07:34.429Z,0.60
2023-03-18T10:10:10.202Z,1.13
2023-03-18T10:12:41.983Z,0.80
2023-03-18T10:15:17.812Z,0.98
2023-03-18T10:17:51.592Z,5.47
2023-03-18T10:20:21.529Z,0.70
2023-03-18T10:23:07.050Z,0.65
2023-03-18T10:25:40.479Z,0.70
2023-03-18T10:28:38.438Z,0.60
2023-03-18T10:31:17.125Z,0.70
2023-03-18T10:33:49.021Z,0.90
2023-03-18T10:36:20.707Z,0.63
2023-03-18T10:38:52.622Z,0.50
2023-03-18T10:41:28.782Z,0.40
2023-03-18T10:43:57.990Z,0.68
2023-03-18T10:46:28.243Z,0.77
2023-03-18T10:49:01.493Z,0.68
2023-03-18T10:51:35.486Z,0.80
2023-03-18T10:54:10.441Z,0.80
2023-03-18T10:56:39.436Z,0.75
2023-03-18T10:59:13.226Z,0.50
2023-03-18T11:01:41.532Z,0.80
2023-03-18T11:04:15.370Z,1.20
2023-03-18T11:06:48.117Z,0.60
2023-03-18T11:09:19.818Z,0.80
2023-03-18T11:11:49.966Z,0.80
2023-03-18T11:14:20.930Z,0.88
2023-03-18T11:16:57.430Z,0.60
2023-03-18T11:19:32.029Z,0.70
2023-03-18T11:22:17.410Z,0.55
2023-03-18T11:24:45.044Z,0.63
2023-03-18T11:27:29.976Z,0.95
2023-03-18T11:30:00.244Z,0.80
2023-03-18T11:32:31.076Z,2.83
2023-03-18T11:35:00.732Z,1.25
2023-03-18T11:37:31.316Z,0.50
2023-03-18T11:40:18.305Z,0.80
2023-03-18T11:42:49.570Z,0.70
2023-03-18T11:45:32.055Z,0.90
2023-03-18T11:47:59.908Z,0.73
2023-03-18T11:50:39.294Z,0.80
2023-03-18T11:53:14.220Z,0.90
2023-03-18T11:55:46.578Z,0.70
2023-03-18T11:58:41.918Z,0.90
2023-03-18T12:09:42.624Z,1.23
2023-03-18T12:12:29.268Z,1.00
2023-03-18T12:15:06.609Z,1.80
2023-03-18T12:17:44.644Z,1.65
2023-03-18T12:20:31.354Z,0.70
2023-03-18T12:23:04.773Z,2.22
2023-03-18T12:28:28.355Z,0.80
2023-03-18T12:31:13.975Z,0.63
2023-03-18T12:33:55.108Z,0.70
2023-03-18T12:36:32.238Z,0.88
2023-03-18T12:39:45.399Z,0.75
2023-03-18T12:42:18.137Z,0.57
2023-03-18T12:44:59.314Z,0.90
2023-03-18T12:47:36.984Z,0.80
2023-03-18T12:50:08.860Z,0.60
2023-03-18T12:52:43.858Z,0.85
2023-03-18T12:55:17.061Z,0.60
2023-03-18T13:00:23.655Z,1.00
2023-03-18T13:03:06.196Z,0.70
2023-03-18T13:05:41.573Z,5.97
2023-03-18T13:08:45.129Z,3.67
2023-03-18T13:11:27.006Z,7.00
2023-03-18T13:14:00.681Z,1.08
2023-03-18T13:16:35.228Z,4.72
2023-03-18T13:19:04.892Z,2.50
2023-03-18T13:21:37.678Z,0.70
2023-03-18T13:24:44.671Z,1.17
2023-03-18T13:27:29.918Z,0.80
2023-03-18T13:30:07.637Z,0.93
2023-03-18T13:32:50.744Z,1.13
2023-03-18T13:36:05.371Z,0.75
2023-03-18T13:38:58.389Z,1.40
2023-03-18T13:41:42.998Z,1.50
2023-03-18T13:44:17.251Z,1.10
2023-03-18T13:46:55.222Z,1.10
2023-03-18T13:49:27.696Z,0.82
2023-03-18T13:51:59.282Z,0.70
2023-03-18T13:54:34.730Z,0.70
2023-03-18T13:57:19.300Z,0.63
2023-03-18T13:59:49.585Z,0.55
2023-03-18T14:02:43.465Z,1.85
2023-03-18T14:05:35.333Z,1.83
2023-03-18T14:08:07.102Z,0.88
2023-03-18T14:10:34.704Z,1.60
2023-03-18T14:13:27.358Z,1.08
2023-03-18T14:15:58.679Z,2.67
2023-03-18T14:18:28.911Z,2.40
2023-03-18T14:21:02.561Z,2.15
2023-03-18T14:23:38.841Z,1.40
2023-03-18T14:26:09.310Z,1.48
2023-03-18T14:28:46.287Z,4.18
2023-03-18T14:31:22.328Z,1.40
2023-03-18T14:34:02.743Z,1.10
2023-03-18T14:36:46.858Z,2.30
2023-03-18T14:39:19.828Z,0.80
2023-03-18T14:44:22.820Z,2.20
2023-03-18T14:46:53.450Z,0.93
2023-03-18T14:49:35.463Z,0.90
2023-03-18T14:52:07.319Z,0.73
2023-03-18T14:54:43.643Z,0.90
2023-03-18T14:57:11.428Z,0.80
2023-03-18T14:59:38.974Z,0.90
2023-03-18T15:02:21.158Z,0.70
2023-03-18T15:04:54.408Z,1.00
2023-03-18T15:07:26.329Z,0.73
2023-03-18T15:09:56.830Z,0.90
2023-03-18T15:12:27.979Z,1.20
2023-03-18T15:14:55.690Z,2.00
2023-03-18T15:17:27.219Z,1.30
2023-03-18T15:19:59.927Z,0.85
2023-03-18T15:22:31.249Z,0.80
2023-03-18T15:25:02.769Z,0.95
2023-03-18T15:27:33.032Z,0.80
2023-03-18T15:30:04.586Z,0.90
2023-03-18T15:32:33.499Z,0.65
2023-03-18T15:35:16.450Z,0.90
2023-03-18T15:37:45.245Z,1.05
2023-03-18T15:40:25.998Z,1.52
2023-03-18T15:42:56.509Z,1.17
2023-03-18T15:45:28.088Z,1.00
2023-03-18T15:47:55.940Z,0.80
2023-03-18T15:50:29.162Z,0.70
2023-03-18T15:53:07.102Z,0.98
2023-03-18T15:55:48.446Z,0.80
2023-03-18T15:58:22.845Z,0.85
2023-03-18T16:00:52.486Z,1.00
2023-03-18T16:03:23.522Z,0.80
2023-03-18T16:05:51.481Z,1.52
2023-03-18T16:08:21.305Z,1.20
2023-03-18T16:10:52.690Z,0.70
2023-03-18T16:13:24.362Z,0.70
2023-03-18T16:15:53.171Z,0.82
2023-03-18T16:18:21.268Z,0.82
2023-03-18T16:20:49.440Z,0.80
2023-03-18T16:23:18.633Z,0.77
2023-03-18T16:25:48.295Z,0.80
2023-03-18T16:28:20.620Z,0.50
2023-03-18T16:30:49.520Z,0.80
2023-03-18T16:33:18.884Z,0.80
2023-03-18T16:35:51.122Z,0.80
2023-03-18T16:38:19.596Z,0.70
2023-03-18T16:40:47.284Z,0.80
2023-03-18T16:43:19.623Z,1.30
2023-03-18T16:45:48.396Z,1.52
2023-03-18T16:48:18.913Z,2.25
2023-03-18T16:50:48.569Z,1.70
2023-03-18T16:53:19.018Z,1.50
2023-03-18T16:55:48.010Z,1.73
2023-03-18T16:58:19.556Z,1.77
2023-03-18T17:00:51.196Z,1.30
2023-03-18T17:03:19.962Z,1.17
2023-03-18T17:05:50.206Z,1.33
2023-03-18T17:08:19.087Z,1.17
2023-03-18T17:10:49.281Z,1.00
2023-03-18T17:13:22.797Z,1.42
2023-03-18T17:15:51.537Z,1.05
2023-03-18T17:18:21.196Z,0.95
2023-03-18T17:20:49.978Z,1.20
2023-03-18T17:23:20.312Z,1.00
2023-03-18T17:25:51.694Z,1.00
2023-03-18T17:28:27.798Z,1.40
2023-03-18T17:30:55.644Z,1.30
2023-03-18T17:33:26.974Z,0.80
2023-03-18T17:35:56.436Z,1.52
2023-03-18T17:38:24.062Z,1.30
2023-03-18T17:40:51.931Z,1.92
2023-03-18T17:43:28.492Z,1.45
2023-03-18T17:45:56.519Z,1.20
2023-03-18T17:48:26.305Z,1.67
2023-03-18T17:50:56.060Z,0.93
2023-03-18T17:53:27.379Z,2.88
2023-03-18T17:55:55.837Z,1.95
2023-03-18T17:58:27.405Z,1.05
2023-03-18T18:00:55.771Z,1.00
2023-03-18T18:03:26.634Z,1.10
2023-03-18T18:05:55.235Z,2.20
2023-03-18T18:08:25.356Z,3.33
2023-03-18T18:10:54.966Z,2.03
2023-03-18T18:13:23.693Z,1.75
2023-03-18T18:15:52.740Z,1.23
2023-03-18T18:18:26.492Z,1.25
2023-03-18T18:20:56.987Z,1.27
2023-03-18T18:23:28.802Z,1.63
2023-03-18T18:26:01.338Z,1.77
2023-03-18T18:28:35.772Z,1.70
2023-03-18T18:31:07.826Z,1.67
2023-03-18T18:33:36.730Z,1.65
2023-03-18T18:36:04.613Z,1.25
2023-03-18T18:38:32.236Z,2.25
2023-03-18T18:41:01.252Z,3.60
2023-03-18T18:43:29.736Z,2.63
2023-03-18T18:46:00.027Z,1.42
2023-03-18T18:48:31.553Z,2.50
2023-03-18T18:50:59.873Z,5.43
2023-03-18T18:53:29.476Z,6.97
2023-03-18T18:55:59.590Z,5.40
2023-03-18T18:58:30.111Z,4.82
2023-03-18T19:00:58.650Z,8.27
2023-03-18T19:03:31.570Z,7.20
2023-03-18T19:06:00.955Z,4.95
2023-03-18T19:08:31.629Z,2.05
2023-03-18T19:11:01.258Z,2.00
2023-03-18T19:13:30.482Z,2.58
2023-03-18T19:16:00.708Z,6.30
2023-03-18T19:18:37.004Z,8.20
2023-03-18T19:21:05.048Z,5.70
2023-03-18T19:23:34.050Z,4.05
2023-03-18T19:26:03.411Z,3.30
2023-03-18T19:28:58.419Z,3.33
2023-03-18T19:31:30.296Z,3.40
2023-03-18T19:34:00.461Z,3.28
2023-03-18T19:36:30.157Z,2.45
2023-03-18T19:39:00.281Z,3.08
2023-03-18T19:41:28.414Z,3.13
2023-03-18T19:43:59.633Z,3.65
2023-03-18T19:46:32.428Z,3.60
2023-03-18T19:49:01.778Z,3.80
2023-03-18T19:51:29.301Z,4.80
2023-03-18T19:53:57.303Z,5.07
2023-03-18T19:56:26.772Z,4.25
2023-03-18T19:58:55.727Z,4.88
2023-03-18T20:01:23.871Z,5.60
2023-03-18T20:03:54.850Z,5.22
2023-03-18T20:06:24.116Z,4.72
2023-03-18T20:08:51.758Z,5.63
2023-03-18T20:11:21.696Z,6.93
2023-03-18T20:13:49.562Z,6.80
2023-03-18T20:16:19.294Z,6.72
2023-03-18T20:18:46.863Z,7.15
2023-03-18T20:21:22.684Z,8.43
2023-03-18T20:23:52.557Z,9.07
2023-03-18T20:26:20.289Z,8.40
2023-03-18T20:28:50.022Z,8.85
2023-03-18T20:31:17.618Z,9.05
2023-03-18T20:33:45.871Z,9.23
2023-03-18T20:36:17.256Z,9.80
2023-03-18T20:38:48.494Z,8.93
2023-03-18T20:41:19.238Z,8.40
2023-03-18T20:43:49.170Z,8.38
2023-03-18T20:46:17.637Z,8.57
2023-03-18T20:48:46.005Z,7.47
2023-03-18T20:51:20.851Z,8.23
2023-03-18T20:53:49.329Z,6.97
2023-03-18T20:56:19.388Z,7.57
2023-03-18T20:58:47.021Z,7.82
2023-03-18T21:01:15.022Z,7.07
2023-03-18T21:03:43.040Z,6.72
2023-03-18T21:06:13.496Z,6.78
2023-03-18T21:08:41.359Z,7.07
2023-03-18T21:11:22.689Z,6.80
2023-03-18T21:13:50.956Z,6.97
2023-03-18T21:16:19.855Z,6.53
2023-03-18T21:18:49.471Z,7.53
2023-03-18T21:21:23.429Z,6.88
2023-03-18T21:23:52.311Z,6.88
2023-03-18T21:26:21.635Z,8.10
2023-03-18T21:28:49.151Z,7.63
2023-03-18T21:31:23.969Z,7.43
2023-03-18T21:33:53.112Z,6.72
2023-03-18T21:36:21.729Z,7.20
2023-03-18T21:38:49.575Z,7.28
2023-03-18T21:41:21.934Z,5.97
2023-03-18T21:43:50.479Z,6.47
2023-03-18T21:46:20.115Z,5.95
2023-03-18T21:48:47.967Z,5.43
2023-03-18T21:51:37.451Z,6.57
2023-03-18T21:54:06.365Z,6.47
2023-03-18T21:56:35.266Z,9.40
2023-03-18T21:59:02.875Z,7.93
2023-03-18T22:01:32.212Z,7.22
2023-03-18T22:04:00.413Z,6.60
2023-03-18T22:06:27.988Z,5.18
2023-03-18T22:08:56.868Z,5.57
2023-03-18T22:11:24.528Z,6.07
2023-03-18T22:13:53.861Z,6.75
2023-03-18T22:16:21.838Z,6.90
2023-03-18T22:18:49.488Z,6.03
2023-03-18T22:21:22.568Z,6.10
2023-03-18T22:23:50.555Z,10.25
2023-03-18T22:26:20.509Z,11.95
2023-03-18T22:28:49.567Z,9.88
2023-03-18T22:31:21.570Z,7.03
2023-03-18T22:33:49.276Z,7.18
2023-03-18T22:36:18.486Z,6.68
2023-03-18T22:38:46.766Z,6.63
2023-03-18T22:41:20.612Z,8.00
2023-03-18T22:43:48.850Z,6.45
2023-03-18T22:46:16.567Z,6.78
2023-03-18T22:48:45.491Z,6.85
2023-03-18T22:51:22.697Z,6.32
2023-03-18T22:53:52.296Z,5.93
2023-03-18T22:56:20.898Z,5.78
2023-03-18T22:58:48.493Z,6.15
2023-03-18T23:01:18.513Z,7.68
2023-03-18T23:03:47.813Z,6.18
2023-03-18T23:06:17.311Z,7.30
2023-03-18T23:08:46.041Z,6.18
2023-03-18T23:11:14.801Z,5.88
2023-03-18T23:13:44.152Z,7.05
2023-03-18T23:16:16.919Z,7.07
2023-03-18T23:18:44.508Z,6.35
2023-03-18T23:21:16.793Z,6.43
2023-03-18T23:23:44.499Z,5.40
2023-03-18T23:26:12.292Z,6.25
2023-03-18T23:28:44.887Z,5.13
2023-03-18T23:31:13.302Z,5.50
2023-03-18T23:33:40.953Z,4.68
2023-03-18T23:36:09.289Z,5.20
2023-03-18T23:38:38.641Z,4.80
2023-03-18T23:41:07.053Z,4.63
2023-03-18T23:43:34.605Z,5.43
2023-03-18T23:46:03.618Z,4.90
2023-03-18T23:48:31.330Z,4.88
2023-03-18T23:50:58.859Z,5.45
2023-03-18T23:53:26.423Z,5.13
2023-03-18T23:55:55.332Z,5.75
2023-03-18T23:58:22.880Z,6.20
